sensor_id;sensor_type;location;lat;lon;timestamp;pressure;altitude;pressure_sealevel;temperature;humidity
59825;BME280;45703;50.898;6.054;2023-04-25T00:01:59;99648.59;;;7.58;83.64
59825;BME280;45703;50.898;6.054;2023-04-25T00:04:25;99652.72;;;7.54;83.20
59825;BME280;45703;50.898;6.054;2023-04-25T00:06:53;99634.00;;;7.42;83.11
59825;BME280;45703;50.898;6.054;2023-04-25T00:09:19;99657.88;;;7.49;82.54
59825;BME280;45703;50.898;6.054;2023-04-25T00:11:45;99634.84;;;7.43;82.77
59825;BME280;45703;50.898;6.054;2023-04-25T00:14:10;99648.69;;;7.45;83.25
59825;BME280;45703;50.898;6.054;2023-04-25T00:16:35;99653.59;;;7.48;83.10
59825;BME280;45703;50.898;6.054;2023-04-25T00:19:01;99651.13;;;7.46;83.66
59825;BME280;45703;50.898;6.054;2023-04-25T00:21:27;99653.84;;;7.40;84.28
59825;BME280;45703;50.898;6.054;2023-04-25T00:23:54;99652.03;;;7.34;84.96
59825;BME280;45703;50.898;6.054;2023-04-25T00:26:19;99640.00;;;7.31;84.45
59825;BME280;45703;50.898;6.054;2023-04-25T00:28:46;99641.03;;;7.30;85.32
59825;BME280;45703;50.898;6.054;2023-04-25T00:31:11;99640.47;;;7.22;84.28
59825;BME280;45703;50.898;6.054;2023-04-25T00:33:37;99647.25;;;7.18;87.41
59825;BME280;45703;50.898;6.054;2023-04-25T00:36:03;99652.19;;;7.08;88.06
59825;BME280;45703;50.898;6.054;2023-04-25T00:38:28;99662.81;;;7.08;87.14
59825;BME280;45703;50.898;6.054;2023-04-25T00:40:53;99661.22;;;7.01;89.03
59825;BME280;45703;50.898;6.054;2023-04-25T00:43:21;99661.63;;;7.04;87.29
59825;BME280;45703;50.898;6.054;2023-04-25T00:45:47;99660.00;;;7.03;89.00
59825;BME280;45703;50.898;6.054;2023-04-25T00:48:14;99650.59;;;7.01;87.94
59825;BME280;45703;50.898;6.054;2023-04-25T00:50:39;99651.81;;;7.05;85.83
59825;BME280;45703;50.898;6.054;2023-04-25T00:53:05;99651.00;;;7.04;87.19
59825;BME280;45703;50.898;6.054;2023-04-25T00:55:31;99648.53;;;7.09;86.06
59825;BME280;45703;50.898;6.054;2023-04-25T00:57:58;99659.34;;;7.07;88.45
59825;BME280;45703;50.898;6.054;2023-04-25T01:00:23;99664.63;;;7.14;86.10
59825;BME280;45703;50.898;6.054;2023-04-25T01:02:49;99659.88;;;7.22;85.34
59825;BME280;45703;50.898;6.054;2023-04-25T01:05:15;99655.59;;;7.21;85.57
59825;BME280;45703;50.898;6.054;2023-04-25T01:07:41;99656.84;;;7.12;88.78
59825;BME280;45703;50.898;6.054;2023-04-25T01:10:07;99651.75;;;7.17;86.96
59825;BME280;45703;50.898;6.054;2023-04-25T01:12:32;99665.38;;;7.21;85.75
59825;BME280;45703;50.898;6.054;2023-04-25T01:14:58;99667.63;;;7.24;86.35
59825;BME280;45703;50.898;6.054;2023-04-25T01:17:23;99656.63;;;7.20;85.44
59825;BME280;45703;50.898;6.054;2023-04-25T01:19:49;99668.47;;;7.18;85.82
59825;BME280;45703;50.898;6.054;2023-04-25T01:22:16;99661.34;;;7.18;85.43
59825;BME280;45703;50.898;6.054;2023-04-25T01:24:42;99668.88;;;7.21;85.23
59825;BME280;45703;50.898;6.054;2023-04-25T01:27:08;99659.91;;;7.16;86.48
59825;BME280;45703;50.898;6.054;2023-04-25T01:29:34;99657.66;;;7.19;84.63
59825;BME280;45703;50.898;6.054;2023-04-25T01:32:00;99662.56;;;7.16;85.04
59825;BME280;45703;50.898;6.054;2023-04-25T01:34:26;99671.72;;;7.20;85.28
59825;BME280;45703;50.898;6.054;2023-04-25T01:36:52;99663.78;;;7.13;84.98
59825;BME280;45703;50.898;6.054;2023-04-25T01:39:18;99664.03;;;7.12;87.20
59825;BME280;45703;50.898;6.054;2023-04-25T01:41:45;99652.22;;;7.02;87.36
59825;BME280;45703;50.898;6.054;2023-04-25T01:44:11;99669.75;;;7.09;87.29
59825;BME280;45703;50.898;6.054;2023-04-25T01:46:36;99670.97;;;7.07;86.96
59825;BME280;45703;50.898;6.054;2023-04-25T01:49:02;99666.50;;;7.07;87.43
59825;BME280;45703;50.898;6.054;2023-04-25T01:51:28;99668.91;;;7.08;86.48
59825;BME280;45703;50.898;6.054;2023-04-25T01:53:53;99675.66;;;7.11;85.91
59825;BME280;45703;50.898;6.054;2023-04-25T01:56:19;99675.06;;;7.09;88.04
59825;BME280;45703;50.898;6.054;2023-04-25T01:58:45;99673.44;;;7.08;88.42
59825;BME280;45703;50.898;6.054;2023-04-25T02:01:10;99679.97;;;7.06;87.56
59825;BME280;45703;50.898;6.054;2023-04-25T02:03:36;99671.81;;;7.07;87.31
59825;BME280;45703;50.898;6.054;2023-04-25T02:06:02;99680.78;;;7.06;88.00
59825;BME280;45703;50.898;6.054;2023-04-25T02:08:27;99668.56;;;6.99;87.82
59825;BME280;45703;50.898;6.054;2023-04-25T02:10:52;99682.00;;;7.04;88.01
59825;BME280;45703;50.898;6.054;2023-04-25T02:13:18;99680.78;;;7.06;86.64
59825;BME280;45703;50.898;6.054;2023-04-25T02:15:43;99675.72;;;6.98;87.77
59825;BME280;45703;50.898;6.054;2023-04-25T02:18:09;99678.16;;;7.00;86.86
59825;BME280;45703;50.898;6.054;2023-04-25T02:20:35;99683.88;;;7.03;86.99
59825;BME280;45703;50.898;6.054;2023-04-25T02:23:02;99683.28;;;7.01;89.28
59825;BME280;45703;50.898;6.054;2023-04-25T02:25:27;99685.31;;;6.99;87.88
59825;BME280;45703;50.898;6.054;2023-04-25T02:27:53;99680.44;;;6.96;88.61
59825;BME280;45703;50.898;6.054;2023-04-25T02:30:19;99685.31;;;6.99;87.74
59825;BME280;45703;50.898;6.054;2023-04-25T02:32:44;99682.88;;;6.98;87.68
59825;BME280;45703;50.898;6.054;2023-04-25T02:35:10;99683.69;;;6.98;87.38
59825;BME280;45703;50.898;6.054;2023-04-25T02:37:38;99690.41;;;7.01;87.53
59825;BME280;45703;50.898;6.054;2023-04-25T02:40:05;99680.03;;;6.93;89.01
59825;BME280;45703;50.898;6.054;2023-04-25T02:42:30;99683.13;;;6.83;90.22
59825;BME280;45703;50.898;6.054;2023-04-25T02:44:56;99676.00;;;6.77;90.82
59825;BME280;45703;50.898;6.054;2023-04-25T02:47:21;99682.34;;;6.76;89.75
59825;BME280;45703;50.898;6.054;2023-04-25T02:49:47;99683.38;;;6.75;88.10
59825;BME280;45703;50.898;6.054;2023-04-25T02:52:12;99700.88;;;6.89;88.48
59825;BME280;45703;50.898;6.054;2023-04-25T02:54:39;99697.59;;;6.87;88.21
59825;BME280;45703;50.898;6.054;2023-04-25T02:57:05;99693.13;;;6.81;88.96
59825;BME280;45703;50.898;6.054;2023-04-25T02:59:30;99688.69;;;6.75;89.82
59825;BME280;45703;50.898;6.054;2023-04-25T03:01:56;99694.38;;;6.79;88.47
59825;BME280;45703;50.898;6.054;2023-04-25T03:04:21;99695.19;;;6.79;89.34
59825;BME280;45703;50.898;6.054;2023-04-25T03:06:51;99688.69;;;6.75;90.09
59825;BME280;45703;50.898;6.054;2023-04-25T03:09:17;99688.50;;;6.70;89.58
59825;BME280;45703;50.898;6.054;2023-04-25T03:11:44;99689.94;;;6.66;89.80
59825;BME280;45703;50.898;6.054;2023-04-25T03:14:10;99691.16;;;6.70;89.33
59825;BME280;45703;50.898;6.054;2023-04-25T03:16:35;99680.34;;;6.65;89.64
59825;BME280;45703;50.898;6.054;2023-04-25T03:19:01;99689.94;;;6.66;89.23
59825;BME280;45703;50.898;6.054;2023-04-25T03:21:27;99696.06;;;6.67;89.27
59825;BME280;45703;50.898;6.054;2023-04-25T03:23:52;99696.88;;;6.67;89.20
59825;BME280;45703;50.898;6.054;2023-04-25T03:26:20;99700.13;;;6.69;88.31
59825;BME280;45703;50.898;6.054;2023-04-25T03:28:46;99692.81;;;6.58;90.11
59825;BME280;45703;50.898;6.054;2023-04-25T03:31:11;99688.78;;;6.49;91.72
59825;BME280;45703;50.898;6.054;2023-04-25T03:33:37;99698.75;;;6.54;91.33
59825;BME280;45703;50.898;6.054;2023-04-25T03:36:02;99700.19;;;6.50;90.84
59825;BME280;45703;50.898;6.054;2023-04-25T03:38:28;99701.81;;;6.57;90.10
59825;BME280;45703;50.898;6.054;2023-04-25T03:40:53;99696.31;;;6.52;90.38
59825;BME280;45703;50.898;6.054;2023-04-25T03:43:19;99705.06;;;6.59;89.28
59825;BME280;45703;50.898;6.054;2023-04-25T03:45:44;99701.81;;;6.57;89.80
59825;BME280;45703;50.898;6.054;2023-04-25T03:48:11;99698.56;;;6.49;88.94
59825;BME280;45703;50.898;6.054;2023-04-25T03:50:36;99697.75;;;6.48;88.43
59825;BME280;45703;50.898;6.054;2023-04-25T03:53:02;99693.25;;;6.49;88.69
59825;BME280;45703;50.898;6.054;2023-04-25T03:55:27;99693.66;;;6.46;90.42
59825;BME280;45703;50.898;6.054;2023-04-25T03:57:52;99698.97;;;6.46;89.43
59825;BME280;45703;50.898;6.054;2023-04-25T04:00:18;99711.00;;;6.48;91.40
59825;BME280;45703;50.898;6.054;2023-04-25T04:02:43;99708.75;;;6.52;89.19
59825;BME280;45703;50.898;6.054;2023-04-25T04:05:08;99703.47;;;6.45;90.57
59825;BME280;45703;50.898;6.054;2023-04-25T04:07:34;99714.88;;;6.52;88.74
59825;BME280;45703;50.898;6.054;2023-04-25T04:10:08;99714.03;;;6.52;88.23
59825;BME280;45703;50.898;6.054;2023-04-25T04:12:34;99715.91;;;6.51;89.80
59825;BME280;45703;50.898;6.054;2023-04-25T04:15:01;99716.91;;;6.50;89.32
59825;BME280;45703;50.898;6.054;2023-04-25T04:17:28;99715.47;;;6.54;89.04
59825;BME280;45703;50.898;6.054;2023-04-25T04:19:53;99723.41;;;6.61;87.87
59825;BME280;45703;50.898;6.054;2023-04-25T04:22:19;99727.28;;;6.58;89.35
59825;BME280;45703;50.898;6.054;2023-04-25T04:24:44;99724.03;;;6.50;88.18
59825;BME280;45703;50.898;6.054;2023-04-25T04:27:11;99740.97;;;6.55;90.98
59825;BME280;45703;50.898;6.054;2023-04-25T04:29:38;99721.38;;;6.50;88.70
59825;BME280;45703;50.898;6.054;2023-04-25T04:32:03;99733.63;;;6.57;89.90
59825;BME280;45703;50.898;6.054;2023-04-25T04:34:29;99733.22;;;6.60;88.74
59825;BME280;45703;50.898;6.054;2023-04-25T04:36:56;99741.56;;;6.64;88.04
59825;BME280;45703;50.898;6.054;2023-04-25T04:39:22;99742.56;;;6.63;88.26
59825;BME280;45703;50.898;6.054;2023-04-25T04:41:47;99731.78;;;6.58;87.82
59825;BME280;45703;50.898;6.054;2023-04-25T04:44:14;99742.19;;;6.66;87.83
59825;BME280;45703;50.898;6.054;2023-04-25T04:46:39;99757.88;;;6.61;89.91
59825;BME280;45703;50.898;6.054;2023-04-25T04:49:09;99742.59;;;6.56;89.26
59825;BME280;45703;50.898;6.054;2023-04-25T04:51:34;99751.56;;;6.55;89.55
59825;BME280;45703;50.898;6.054;2023-04-25T04:53:59;99736.50;;;6.49;88.91
59825;BME280;45703;50.898;6.054;2023-04-25T04:56:31;99751.34;;;6.57;88.92
59825;BME280;45703;50.898;6.054;2023-04-25T04:58:57;99743.84;;;6.47;89.09
59825;BME280;45703;50.898;6.054;2023-04-25T05:01:23;99756.28;;;6.53;89.75
59825;BME280;45703;50.898;6.054;2023-04-25T05:03:48;99752.00;;;6.52;89.67
59825;BME280;45703;50.898;6.054;2023-04-25T05:06:15;99765.63;;;6.56;90.87
59825;BME280;45703;50.898;6.054;2023-04-25T05:08:41;99777.69;;;6.58;90.65
59825;BME280;45703;50.898;6.054;2023-04-25T05:11:06;99780.53;;;6.57;90.07
59825;BME280;45703;50.898;6.054;2023-04-25T05:13:32;99777.69;;;6.58;90.75
59825;BME280;45703;50.898;6.054;2023-04-25T05:15:57;99772.16;;;6.60;88.71
59825;BME280;45703;50.898;6.054;2023-04-25T05:18:22;99767.88;;;6.59;88.80
59825;BME280;45703;50.898;6.054;2023-04-25T05:20:48;99781.56;;;6.62;89.38
59825;BME280;45703;50.898;6.054;2023-04-25T05:23:13;99790.13;;;6.64;88.51
59825;BME280;45703;50.898;6.054;2023-04-25T05:25:38;99790.72;;;6.66;88.51
59825;BME280;45703;50.898;6.054;2023-04-25T05:28:04;99802.53;;;6.70;89.03
59825;BME280;45703;50.898;6.054;2023-04-25T05:30:30;99800.91;;;6.69;88.95
59825;BME280;45703;50.898;6.054;2023-04-25T05:32:56;99800.13;;;6.62;89.18
59825;BME280;45703;50.898;6.054;2023-04-25T05:35:21;99794.81;;;6.62;88.64
59825;BME280;45703;50.898;6.054;2023-04-25T05:37:46;99805.63;;;6.67;88.31
59825;BME280;45703;50.898;6.054;2023-04-25T05:40:12;99810.72;;;6.69;88.73
59825;BME280;45703;50.898;6.054;2023-04-25T05:42:37;99807.06;;;6.70;88.30
59825;BME280;45703;50.898;6.054;2023-04-25T05:45:03;99789.50;;;6.62;88.20
59825;BME280;45703;50.898;6.054;2023-04-25T05:47:29;99809.06;;;6.74;88.22
59825;BME280;45703;50.898;6.054;2023-04-25T05:49:54;99818.44;;;6.83;87.53
59825;BME280;45703;50.898;6.054;2023-04-25T05:52:20;99819.25;;;6.77;88.97
59825;BME280;45703;50.898;6.054;2023-04-25T05:54:45;99823.72;;;6.83;87.51
59825;BME280;45703;50.898;6.054;2023-04-25T05:57:24;99826.56;;;6.88;87.61
59825;BME280;45703;50.898;6.054;2023-04-25T05:59:50;99834.13;;;6.98;86.69
59825;BME280;45703;50.898;6.054;2023-04-25T06:02:17;99818.41;;;6.96;86.03
59825;BME280;45703;50.898;6.054;2023-04-25T06:04:42;99825.53;;;7.02;86.56
59825;BME280;45703;50.898;6.054;2023-04-25T06:07:08;99828.63;;;6.99;85.73
59825;BME280;45703;50.898;6.054;2023-04-25T06:09:33;99815.78;;;6.96;85.31
59825;BME280;45703;50.898;6.054;2023-04-25T06:11:59;99835.09;;;7.09;85.44
59825;BME280;45703;50.898;6.054;2023-04-25T06:14:25;99837.16;;;7.14;85.33
59825;BME280;45703;50.898;6.054;2023-04-25T06:16:50;99836.94;;;7.15;85.16
59825;BME280;45703;50.898;6.054;2023-04-25T06:19:15;99842.81;;;7.24;84.76
59825;BME280;45703;50.898;6.054;2023-04-25T06:21:43;99849.16;;;7.29;84.81
59825;BME280;45703;50.898;6.054;2023-04-25T06:24:08;99848.72;;;7.32;84.65
59825;BME280;45703;50.898;6.054;2023-04-25T06:26:34;99856.88;;;7.37;84.77
59825;BME280;45703;50.898;6.054;2023-04-25T06:28:59;99838.47;;;7.36;84.53
59825;BME280;45703;50.898;6.054;2023-04-25T06:31:25;99854.78;;;7.52;83.17
59825;BME280;45703;50.898;6.054;2023-04-25T06:33:50;99844.75;;;7.54;83.52
59825;BME280;45703;50.898;6.054;2023-04-25T06:36:15;99846.97;;;7.64;84.07
59825;BME280;45703;50.898;6.054;2023-04-25T06:38:41;99843.88;;;7.67;83.21
59825;BME280;45703;50.898;6.054;2023-04-25T06:41:06;99850.81;;;7.74;82.64
59825;BME280;45703;50.898;6.054;2023-04-25T06:43:32;99846.75;;;7.65;81.88
59825;BME280;45703;50.898;6.054;2023-04-25T06:45:59;99856.47;;;7.78;82.28
59825;BME280;45703;50.898;6.054;2023-04-25T06:48:26;99853.81;;;7.78;81.16
59825;BME280;45703;50.898;6.054;2023-04-25T06:50:52;99855.72;;;7.71;81.12
59825;BME280;45703;50.898;6.054;2023-04-25T06:53:17;99868.31;;;7.82;80.78
59825;BME280;45703;50.898;6.054;2023-04-25T06:55:43;99866.88;;;7.86;80.52
59825;BME280;45703;50.898;6.054;2023-04-25T06:58:09;99869.94;;;7.83;81.06
59825;BME280;45703;50.898;6.054;2023-04-25T07:00:35;99868.31;;;7.82;81.08
59825;BME280;45703;50.898;6.054;2023-04-25T07:03:01;99871.56;;;7.84;81.30
59825;BME280;45703;50.898;6.054;2023-04-25T07:05:27;99877.91;;;7.83;79.55
59825;BME280;45703;50.898;6.054;2023-04-25T07:07:52;99872.19;;;7.86;79.25
59825;BME280;45703;50.898;6.054;2023-04-25T07:10:18;99880.31;;;7.91;80.50
59825;BME280;45703;50.898;6.054;2023-04-25T07:12:44;99871.34;;;7.92;79.46
59825;BME280;45703;50.898;6.054;2023-04-25T07:15:10;99878.69;;;7.96;80.52
59825;BME280;45703;50.898;6.054;2023-04-25T07:17:37;99890.31;;;8.02;79.59
59825;BME280;45703;50.898;6.054;2023-04-25T07:20:04;99888.41;;;8.09;78.58
59825;BME280;45703;50.898;6.054;2023-04-25T07:22:31;99892.28;;;8.13;78.82
59825;BME280;45703;50.898;6.054;2023-04-25T07:24:57;99888.00;;;8.12;78.33
59825;BME280;45703;50.898;6.054;2023-04-25T07:27:22;99904.56;;;8.14;78.15
59825;BME280;45703;50.898;6.054;2023-04-25T07:29:48;99904.56;;;8.20;77.47
59825;BME280;45703;50.898;6.054;2023-04-25T07:32:16;99899.22;;;8.14;75.39
59825;BME280;45703;50.898;6.054;2023-04-25T07:34:42;99907.22;;;8.14;76.06
59825;BME280;45703;50.898;6.054;2023-04-25T07:37:07;99899.22;;;8.20;77.15
59825;BME280;45703;50.898;6.054;2023-04-25T07:39:32;99899.44;;;8.19;75.85
59825;BME280;45703;50.898;6.054;2023-04-25T07:41:58;99905.31;;;8.27;75.15
59825;BME280;45703;50.898;6.054;2023-04-25T07:44:25;99903.63;;;8.33;76.77
59825;BME280;45703;50.898;6.054;2023-04-25T07:46:51;99917.09;;;8.38;75.31
59825;BME280;45703;50.898;6.054;2023-04-25T07:49:16;99914.19;;;8.46;76.04
59825;BME280;45703;50.898;6.054;2023-04-25T07:51:41;99922.13;;;8.52;76.12
59825;BME280;45703;50.898;6.054;2023-04-25T07:54:09;99935.38;;;8.58;75.29
59825;BME280;45703;50.898;6.054;2023-04-25T07:56:34;99928.88;;;8.55;70.55
59825;BME280;45703;50.898;6.054;2023-04-25T07:59:00;99927.59;;;8.57;72.02
59825;BME280;45703;50.898;6.054;2023-04-25T08:01:26;99930.81;;;8.65;73.17
59825;BME280;45703;50.898;6.054;2023-04-25T08:03:52;99936.59;;;8.62;73.72
59825;BME280;45703;50.898;6.054;2023-04-25T08:06:17;99933.97;;;8.56;72.55
59825;BME280;45703;50.898;6.054;2023-04-25T08:08:43;99936.84;;;8.55;71.38
59825;BME280;45703;50.898;6.054;2023-04-25T08:11:08;99941.69;;;8.64;71.38
59825;BME280;45703;50.898;6.054;2023-04-25T08:13:34;99943.09;;;8.66;70.19
59825;BME280;45703;50.898;6.054;2023-04-25T08:15:59;99952.28;;;8.70;71.91
59825;BME280;45703;50.898;6.054;2023-04-25T08:18:25;99963.25;;;8.80;71.40
59825;BME280;45703;50.898;6.054;2023-04-25T08:20:50;99969.34;;;8.87;70.83
59825;BME280;45703;50.898;6.054;2023-04-25T08:23:16;99975.69;;;8.86;70.63
59825;BME280;45703;50.898;6.054;2023-04-25T08:25:41;99972.78;;;8.94;71.28
59825;BME280;45703;50.898;6.054;2023-04-25T08:28:06;99972.00;;;8.87;68.29
59825;BME280;45703;50.898;6.054;2023-04-25T08:30:32;99977.50;;;8.92;68.73
59825;BME280;45703;50.898;6.054;2023-04-25T08:32:57;99969.84;;;9.02;70.10
59825;BME280;45703;50.898;6.054;2023-04-25T08:35:23;99966.47;;;9.13;69.20
59825;BME280;45703;50.898;6.054;2023-04-25T08:37:48;99970.13;;;9.19;69.54
59825;BME280;45703;50.898;6.054;2023-04-25T08:40:15;99977.59;;;9.28;68.87
59825;BME280;45703;50.898;6.054;2023-04-25T08:42:41;99970.44;;;9.29;68.82
59825;BME280;45703;50.898;6.054;2023-04-25T08:45:08;99986.88;;;9.44;68.42
59825;BME280;45703;50.898;6.054;2023-04-25T08:47:34;99987.44;;;9.52;65.84
59825;BME280;45703;50.898;6.054;2023-04-25T08:50:02;99989.78;;;9.60;67.71
59825;BME280;45703;50.898;6.054;2023-04-25T08:52:32;99995.81;;;9.74;69.33
59825;BME280;45703;50.898;6.054;2023-04-25T08:54:58;100001.06;;;9.80;68.16
59825;BME280;45703;50.898;6.054;2023-04-25T08:57:25;99995.81;;;9.74;66.67
59825;BME280;45703;50.898;6.054;2023-04-25T08:59:52;99999.72;;;9.71;67.16
59825;BME280;45703;50.898;6.054;2023-04-25T09:02:18;99996.00;;;9.54;64.47
59825;BME280;45703;50.898;6.054;2023-04-25T09:04:45;100009.09;;;9.56;65.96
59825;BME280;45703;50.898;6.054;2023-04-25T09:07:11;100012.94;;;9.42;64.77
59825;BME280;45703;50.898;6.054;2023-04-25T09:09:37;100012.66;;;9.25;64.03
59825;BME280;45703;50.898;6.054;2023-04-25T09:12:03;100015.16;;;9.20;66.74
59825;BME280;45703;50.898;6.054;2023-04-25T09:14:28;100022.25;;;9.08;66.42
59825;BME280;45703;50.898;6.054;2023-04-25T09:21:53;100037.34;;;8.83;66.63
59825;BME280;45703;50.898;6.054;2023-04-25T09:24:35;100037.53;;;8.88;67.88
59825;BME280;45703;50.898;6.054;2023-04-25T09:27:09;100043.25;;;8.92;67.70
59825;BME280;45703;50.898;6.054;2023-04-25T09:29:37;100041.81;;;8.89;66.95
59825;BME280;45703;50.898;6.054;2023-04-25T09:32:23;100043.69;;;8.89;66.53
59825;BME280;45703;50.898;6.054;2023-04-25T09:34:51;100045.72;;;8.93;64.11
59825;BME280;45703;50.898;6.054;2023-04-25T09:37:19;100048.09;;;9.01;66.24
59825;BME280;45703;50.898;6.054;2023-04-25T09:39:46;100053.16;;;9.09;65.42
59825;BME280;45703;50.898;6.054;2023-04-25T09:42:15;100054.94;;;9.15;66.66
59825;BME280;45703;50.898;6.054;2023-04-25T09:44:45;100061.03;;;9.22;67.29
59825;BME280;45703;50.898;6.054;2023-04-25T09:47:13;100065.94;;;9.25;66.84
59825;BME280;45703;50.898;6.054;2023-04-25T09:49:40;100068.75;;;9.30;67.21
59825;BME280;45703;50.898;6.054;2023-04-25T09:52:12;100068.72;;;9.37;67.93
59825;BME280;45703;50.898;6.054;2023-04-25T09:54:38;100073.56;;;9.46;65.85
59825;BME280;45703;50.898;6.054;2023-04-25T09:57:18;100073.66;;;9.58;67.91
59825;BME280;45703;50.898;6.054;2023-04-25T09:59:46;100075.41;;;9.70;65.18
59825;BME280;45703;50.898;6.054;2023-04-25T10:02:13;100078.97;;;9.82;65.64
59825;BME280;45703;50.898;6.054;2023-04-25T10:04:39;100080.00;;;9.81;62.63
59825;BME280;45703;50.898;6.054;2023-04-25T10:07:06;100090.47;;;9.83;62.17
59825;BME280;45703;50.898;6.054;2023-04-25T10:09:33;100091.25;;;9.83;60.42
59825;BME280;45703;50.898;6.054;2023-04-25T10:11:59;100097.63;;;9.82;61.56
59825;BME280;45703;50.898;6.054;2023-04-25T10:14:26;100082.06;;;9.79;63.83
59825;BME280;45703;50.898;6.054;2023-04-25T10:16:52;100091.25;;;9.83;63.17
59825;BME280;45703;50.898;6.054;2023-04-25T10:19:20;100083.41;;;9.88;64.76
59825;BME280;45703;50.898;6.054;2023-04-25T10:21:52;100089.28;;;9.97;64.25
59825;BME280;45703;50.898;6.054;2023-04-25T10:24:19;100072.47;;;9.96;65.36
59825;BME280;45703;50.898;6.054;2023-04-25T10:26:46;100078.00;;;10.01;64.36
59825;BME280;45703;50.898;6.054;2023-04-25T10:29:12;100076.53;;;10.05;64.63
59825;BME280;45703;50.898;6.054;2023-04-25T10:31:45;100075.84;;;10.09;65.05
59825;BME280;45703;50.898;6.054;2023-04-25T10:34:11;100078.28;;;10.11;64.69
59825;BME280;45703;50.898;6.054;2023-04-25T10:36:36;100079.25;;;10.16;64.26
59825;BME280;45703;50.898;6.054;2023-04-25T10:39:07;100070.88;;;10.13;64.74
59825;BME280;45703;50.898;6.054;2023-04-25T10:41:47;100071.91;;;10.30;64.88
59825;BME280;45703;50.898;6.054;2023-04-25T10:44:14;100072.44;;;10.38;61.22
59825;BME280;45703;50.898;6.054;2023-04-25T10:46:39;100074.94;;;10.51;64.93
59825;BME280;45703;50.898;6.054;2023-04-25T10:49:07;100077.91;;;10.43;63.64
59825;BME280;45703;50.898;6.054;2023-04-25T10:51:34;100085.19;;;10.36;62.17
59825;BME280;45703;50.898;6.054;2023-04-25T10:54:05;100081.84;;;10.23;61.87
59825;BME280;45703;50.898;6.054;2023-04-25T10:56:32;100088.22;;;10.04;60.84
59825;BME280;45703;50.898;6.054;2023-04-25T10:59:11;100099.16;;;9.96;63.13
59825;BME280;45703;50.898;6.054;2023-04-25T11:01:44;100093.72;;;9.85;62.84
59825;BME280;45703;50.898;6.054;2023-04-25T11:04:39;100095.53;;;9.66;63.79
59825;BME280;45703;50.898;6.054;2023-04-25T11:07:33;100092.00;;;9.48;64.83
59825;BME280;45703;50.898;6.054;2023-04-25T11:10:02;100071.69;;;9.22;62.47
59825;BME280;45703;50.898;6.054;2023-04-25T11:12:32;100094.19;;;9.26;62.81
59825;BME280;45703;50.898;6.054;2023-04-25T11:15:05;100099.16;;;9.23;61.55
59825;BME280;45703;50.898;6.054;2023-04-25T11:17:31;100086.47;;;9.18;63.19
59825;BME280;45703;50.898;6.054;2023-04-25T11:19:56;100103.66;;;9.22;62.05
59825;BME280;45703;50.898;6.054;2023-04-25T11:22:23;100097.03;;;9.31;62.92
59825;BME280;45703;50.898;6.054;2023-04-25T11:24:48;100102.34;;;9.31;63.42
59825;BME280;45703;50.898;6.054;2023-04-25T11:27:14;100105.94;;;9.43;65.03
59825;BME280;45703;50.898;6.054;2023-04-25T11:29:40;100103.03;;;9.51;63.87
59825;BME280;45703;50.898;6.054;2023-04-25T11:32:06;100091.50;;;9.57;64.76
59825;BME280;45703;50.898;6.054;2023-04-25T11:34:32;100103.38;;;9.61;63.38
59825;BME280;45703;50.898;6.054;2023-04-25T11:36:59;100102.88;;;9.71;64.52
59825;BME280;45703;50.898;6.054;2023-04-25T11:39:26;100117.59;;;9.73;62.40
59825;BME280;45703;50.898;6.054;2023-04-25T11:41:52;100109.31;;;9.81;64.79
59825;BME280;45703;50.898;6.054;2023-04-25T11:44:18;100112.91;;;9.93;62.11
59825;BME280;45703;50.898;6.054;2023-04-25T11:46:45;100107.47;;;10.06;63.11
59825;BME280;45703;50.898;6.054;2023-04-25T11:49:10;100102.75;;;10.08;60.73
59825;BME280;45703;50.898;6.054;2023-04-25T11:54:05;100104.53;;;10.14;60.12
59825;BME280;45703;50.898;6.054;2023-04-25T11:56:31;100111.03;;;10.18;61.67
59825;BME280;45703;50.898;6.054;2023-04-25T11:58:59;100103.63;;;10.20;59.59
59825;BME280;45703;50.898;6.054;2023-04-25T12:01:30;100110.00;;;10.37;59.25
59825;BME280;45703;50.898;6.054;2023-04-25T12:03:56;100110.72;;;10.44;60.64
59825;BME280;45703;50.898;6.054;2023-04-25T12:06:26;100119.09;;;10.65;61.17
59825;BME280;45703;50.898;6.054;2023-04-25T12:09:07;100117.59;;;10.87;59.09
59825;BME280;45703;50.898;6.054;2023-04-25T12:11:40;100118.97;;;11.08;62.31
59825;BME280;45703;50.898;6.054;2023-04-25T12:14:06;100106.00;;;11.23;56.25
59825;BME280;45703;50.898;6.054;2023-04-25T12:16:42;100102.06;;;11.37;57.62
59825;BME280;45703;50.898;6.054;2023-04-25T12:19:08;100109.59;;;11.57;57.36
59825;BME280;45703;50.898;6.054;2023-04-25T12:21:33;100108.44;;;11.76;59.66
59825;BME280;45703;50.898;6.054;2023-04-25T12:24:21;100110.75;;;11.84;58.53
59825;BME280;45703;50.898;6.054;2023-04-25T12:27:02;100110.91;;;11.78;57.64
59825;BME280;45703;50.898;6.054;2023-04-25T12:29:29;100120.28;;;11.57;53.71
59825;BME280;45703;50.898;6.054;2023-04-25T12:31:56;100124.44;;;11.53;55.97
59825;BME280;45703;50.898;6.054;2023-04-25T12:34:23;100116.19;;;11.55;57.29
59825;BME280;45703;50.898;6.054;2023-04-25T12:36:50;100108.13;;;11.43;55.67
59825;BME280;45703;50.898;6.054;2023-04-25T12:39:22;100110.34;;;11.46;57.70
59825;BME280;45703;50.898;6.054;2023-04-25T12:41:51;100121.91;;;11.58;58.06
59825;BME280;45703;50.898;6.054;2023-04-25T12:44:20;100118.56;;;11.74;57.06
59825;BME280;45703;50.898;6.054;2023-04-25T12:46:45;100114.94;;;11.69;57.04
59825;BME280;45703;50.898;6.054;2023-04-25T12:49:10;100112.63;;;11.72;56.93
59825;BME280;45703;50.898;6.054;2023-04-25T12:51:36;100120.84;;;11.71;55.10
59825;BME280;45703;50.898;6.054;2023-04-25T12:54:04;100123.22;;;11.79;58.08
59825;BME280;45703;50.898;6.054;2023-04-25T12:56:30;100121.00;;;11.87;57.99
59825;BME280;45703;50.898;6.054;2023-04-25T12:58:56;100113.09;;;11.92;56.93
59825;BME280;45703;50.898;6.054;2023-04-25T13:01:22;100104.59;;;11.95;55.28
59825;BME280;45703;50.898;6.054;2023-04-25T13:03:49;100119.13;;;12.22;57.19
59825;BME280;45703;50.898;6.054;2023-04-25T13:06:15;100108.78;;;12.26;57.33
59825;BME280;45703;50.898;6.054;2023-04-25T13:08:41;100106.44;;;12.18;56.70
59825;BME280;45703;50.898;6.054;2023-04-25T13:11:07;100119.25;;;12.16;57.18